createdAt,value
2022-12-03T00:01:29.148Z,76.50
2022-12-03T00:06:34.482Z,69.80
2022-12-03T00:11:36.692Z,63.10
2022-12-03T00:16:38.440Z,75.70
2022-12-03T00:26:41.924Z,74.30
2022-12-03T00:31:45.736Z,79.40
2022-12-03T00:36:48.780Z,79.40
2022-12-03T00:41:50.498Z,67.40
2022-12-03T00:46:53.158Z,66.10
2022-12-03T00:51:55.035Z,69.80
2022-12-03T00:56:56.885Z,71.00
2022-12-03T01:01:58.653Z,73.80
2022-12-03T01:07:01.135Z,73.60
2022-12-03T01:12:03.050Z,66.70
2022-12-03T01:17:05.325Z,73.50
2022-12-03T01:22:08.107Z,65.10
2022-12-03T01:27:09.869Z,76.30
2022-12-03T01:32:17.944Z,70.90
2022-12-03T01:37:21.967Z,71.00
2022-12-03T01:42:29.060Z,71.20
2022-12-03T01:47:34.535Z,61.20
2022-12-03T01:52:39.245Z,66.30
2022-12-03T01:58:01.973Z,78.40
2022-12-03T02:03:11.703Z,80.80
2022-12-03T02:08:37.759Z,115.60
2022-12-03T02:13:40.243Z,90.10
2022-12-03T02:18:43.452Z,81.50
2022-12-03T02:23:54.448Z,96.90
2022-12-03T02:28:56.927Z,62.60
2022-12-03T02:33:58.819Z,71.40
2022-12-03T02:39:01.416Z,77.10
2022-12-03T02:44:06.186Z,76.70
2022-12-03T02:49:08.248Z,74.70
2022-12-03T02:54:10.010Z,72.80
2022-12-03T02:59:12.107Z,72.60
2022-12-03T03:04:14.094Z,67.70
2022-12-03T03:09:15.837Z,73.90
2022-12-03T03:14:17.646Z,64.30
2022-12-03T03:19:19.448Z,64.40
2022-12-03T03:24:23.766Z,66.90
2022-12-03T03:29:25.654Z,69.90
2022-12-03T03:34:28.112Z,69.90
2022-12-03T03:39:30.013Z,70.20
2022-12-03T03:44:33.017Z,70.70
2022-12-03T03:49:35.508Z,63.60
2022-12-03T03:54:38.723Z,71.50
2022-12-03T03:59:41.425Z,66.70
2022-12-03T04:04:43.305Z,68.10
2022-12-03T04:09:45.441Z,69.30
2022-12-03T04:14:47.266Z,69.70
2022-12-03T04:19:50.168Z,61.90
2022-12-03T04:29:54.059Z,62.60
2022-12-03T04:35:16.098Z,69.60
2022-12-03T04:40:36.803Z,73.00
2022-12-03T04:45:38.562Z,73.00
2022-12-03T04:50:40.461Z,63.70
2022-12-03T04:55:42.444Z,64.10
2022-12-03T05:00:44.183Z,60.60
2022-12-03T05:10:48.183Z,70.80
2022-12-03T05:15:49.965Z,63.60
2022-12-03T05:20:53.667Z,65.90
2022-12-03T05:25:55.768Z,69.60
2022-12-03T05:30:57.706Z,68.90
2022-12-03T05:36:00.147Z,67.40
2022-12-03T05:41:01.928Z,69.70
2022-12-03T05:46:03.777Z,76.90
2022-12-03T05:51:05.785Z,71.30
2022-12-03T05:56:07.746Z,83.90
2022-12-03T06:01:09.488Z,69.90
2022-12-03T06:11:12.995Z,68.50
2022-12-03T06:16:15.044Z,77.50
2022-12-03T06:21:16.858Z,78.60
2022-12-03T06:36:23.491Z,81.50
2022-12-03T06:41:25.397Z,80.30
2022-12-03T06:46:27.362Z,81.50
2022-12-03T06:51:29.258Z,79.00
2022-12-03T06:56:36.822Z,81.50
2022-12-03T07:01:40.229Z,85.60
2022-12-03T07:06:42.036Z,78.20
2022-12-03T07:11:43.945Z,91.40
2022-12-03T07:16:46.027Z,120.30
2022-12-03T07:21:48.624Z,176.10
2022-12-03T07:26:50.404Z,118.40
2022-12-03T07:31:52.367Z,114.90
2022-12-03T07:36:54.275Z,118.10
2022-12-03T07:52:00.109Z,82.90
2022-12-03T07:57:02.382Z,92.70
2022-12-03T08:02:04.422Z,103.00
2022-12-03T08:07:06.360Z,107.00
2022-12-03T08:12:17.058Z,100.40
2022-12-03T08:17:21.380Z,106.60
2022-12-03T08:22:24.704Z,114.80
2022-12-03T08:27:26.476Z,108.00
2022-12-03T08:32:28.252Z,98.70
2022-12-03T08:37:30.147Z,101.00
2022-12-03T08:42:43.032Z,101.60
2022-12-03T08:47:44.846Z,109.70
2022-12-03T08:52:46.588Z,109.20
2022-12-03T08:57:48.482Z,115.50
2022-12-03T09:02:59.495Z,103.80
2022-12-03T09:08:01.419Z,100.00
2022-12-03T09:13:03.431Z,93.30
2022-12-03T09:18:07.439Z,83.70
2022-12-03T09:23:09.236Z,98.10
2022-12-03T09:28:10.982Z,106.00
2022-12-03T09:33:14.162Z,96.30
2022-12-03T09:38:15.979Z,96.40
2022-12-03T09:43:18.595Z,98.10
2022-12-03T09:48:20.959Z,99.60
2022-12-03T09:53:25.964Z,100.40
2022-12-03T09:58:34.324Z,105.00
2022-12-03T10:03:41.155Z,106.40
2022-12-03T10:08:43.191Z,101.10
2022-12-03T10:13:46.231Z,106.40
2022-12-03T10:18:51.444Z,107.00
2022-12-03T10:24:29.683Z,127.50
2022-12-03T10:29:34.861Z,115.70
2022-12-03T10:34:41.948Z,99.70
2022-12-03T10:40:12.028Z,113.50
2022-12-03T10:45:16.017Z,118.00
2022-12-03T10:50:20.275Z,110.60
2022-12-03T10:55:22.270Z,101.40
2022-12-03T11:00:24.208Z,120.20
2022-12-03T11:05:28.600Z,115.60
2022-12-03T11:10:30.527Z,122.40
2022-12-03T11:15:44.453Z,114.00
2022-12-03T11:20:46.476Z,113.70
2022-12-03T11:25:50.723Z,120.60
2022-12-03T11:30:56.687Z,126.50
2022-12-03T11:36:04.589Z,135.30
2022-12-03T11:41:27.502Z,121.10
2022-12-03T11:46:47.568Z,131.50
2022-12-03T11:51:50.068Z,129.40
2022-12-03T11:56:53.901Z,124.60
2022-12-03T12:01:55.788Z,117.50
2022-12-03T12:06:57.670Z,130.70
2022-12-03T12:12:37.859Z,132.20
2022-12-03T12:17:39.717Z,128.20
2022-12-03T12:22:41.535Z,129.20
2022-12-03T12:27:47.471Z,119.50
2022-12-03T12:33:01.850Z,123.80
2022-12-03T12:38:07.858Z,134.30
2022-12-03T12:43:27.925Z,136.70
2022-12-03T12:48:35.212Z,122.60
2022-12-03T12:53:39.668Z,116.70
2022-12-03T12:58:42.272Z,130.90
2022-12-03T13:03:44.151Z,115.00
2022-12-03T13:08:49.027Z,136.40
2022-12-03T13:13:52.005Z,134.60
2022-12-03T13:18:55.728Z,126.00
2022-12-03T13:23:58.173Z,133.20
2022-12-03T13:29:06.447Z,141.60
2022-12-03T13:34:16.460Z,147.20
2022-12-03T13:39:38.721Z,140.30
2022-12-03T13:44:45.650Z,158.80
2022-12-03T13:49:56.937Z,155.70
2022-12-03T13:55:03.555Z,142.50
2022-12-03T14:00:06.350Z,145.60
2022-12-03T14:05:14.763Z,132.20
2022-12-03T14:10:17.093Z,124.20
2022-12-03T14:15:19.075Z,134.70
2022-12-03T14:20:20.950Z,138.80
2022-12-03T14:25:22.833Z,136.70
2022-12-03T14:30:24.709Z,146.30
2022-12-03T14:35:26.588Z,141.60
2022-12-03T14:40:28.467Z,142.60
2022-12-03T14:45:30.806Z,128.80
2022-12-03T14:50:32.742Z,125.00
2022-12-03T14:55:34.550Z,128.80
2022-12-03T15:00:36.502Z,166.90
2022-12-03T15:05:38.283Z,134.50
2022-12-03T15:10:40.155Z,123.20
2022-12-03T15:15:41.938Z,117.60
2022-12-03T15:20:43.918Z,126.30
2022-12-03T15:25:46.028Z,147.20
2022-12-03T15:30:48.084Z,142.30
2022-12-03T15:35:49.968Z,139.90
2022-12-03T15:40:52.358Z,140.90
2022-12-03T15:45:54.679Z,156.20
2022-12-03T15:50:56.437Z,149.60
2022-12-03T15:55:59.771Z,143.10
2022-12-03T16:01:01.638Z,146.50
2022-12-03T16:06:03.700Z,144.10
2022-12-03T16:11:05.648Z,149.40
2022-12-03T16:16:07.773Z,149.00
2022-12-03T16:21:09.704Z,156.40
2022-12-03T16:26:11.502Z,155.50
2022-12-03T16:31:13.428Z,166.50
2022-12-03T16:36:15.752Z,154.70
2022-12-03T16:41:18.369Z,167.00
2022-12-03T16:46:21.187Z,167.50
2022-12-03T16:51:23.270Z,176.10
2022-12-03T16:56:25.163Z,146.60
2022-12-03T17:01:27.024Z,161.30
2022-12-03T17:06:28.876Z,128.60
2022-12-03T17:11:30.658Z,135.90
2022-12-03T17:16:32.509Z,139.70
2022-12-03T17:21:35.283Z,122.90
2022-12-03T17:26:37.155Z,130.30
2022-12-03T17:31:42.259Z,143.30
2022-12-03T17:36:44.555Z,117.20
2022-12-03T17:46:49.060Z,135.40
2022-12-03T17:51:50.863Z,125.90
2022-12-03T17:56:52.785Z,120.60
2022-12-03T18:01:54.583Z,119.30
2022-12-03T18:07:00.835Z,133.50
2022-12-03T18:12:04.605Z,137.60
2022-12-03T18:17:06.673Z,119.60
2022-12-03T18:22:09.193Z,129.10
2022-12-03T18:27:11.181Z,134.80
2022-12-03T18:32:27.698Z,128.90
2022-12-03T18:37:32.210Z,133.60
2022-12-03T18:42:33.943Z,153.00
2022-12-03T18:47:36.036Z,146.60
2022-12-03T18:52:38.325Z,159.30
2022-12-03T18:57:40.150Z,140.90
2022-12-03T19:08:04.602Z,130.90
2022-12-03T19:13:06.558Z,133.30
2022-12-03T19:18:08.449Z,123.60
2022-12-03T19:23:10.381Z,129.10
2022-12-03T19:28:12.123Z,110.00
2022-12-03T19:33:17.993Z,123.80
2022-12-03T19:38:20.327Z,112.00
2022-12-03T19:43:22.093Z,120.10
2022-12-03T19:48:23.930Z,117.80
2022-12-03T19:53:27.216Z,102.30
2022-12-03T19:58:29.558Z,107.30
2022-12-03T20:03:31.317Z,112.70
2022-12-03T20:08:37.258Z,110.60
2022-12-03T20:13:39.491Z,125.30
2022-12-03T20:18:43.315Z,129.00
2022-12-03T20:23:46.207Z,130.40
2022-12-03T20:28:49.150Z,117.00
2022-12-03T20:33:54.490Z,111.70
2022-12-03T20:38:59.218Z,141.10
2022-12-03T20:44:02.554Z,129.40
2022-12-03T20:49:04.937Z,137.80
2022-12-03T20:54:06.831Z,144.10
2022-12-03T20:59:12.379Z,137.20
2022-12-03T21:04:16.092Z,130.70
2022-12-03T21:09:17.989Z,139.40
2022-12-03T21:14:19.761Z,130.10
2022-12-03T21:19:21.975Z,127.70
2022-12-03T21:24:23.801Z,110.00
2022-12-03T21:29:25.578Z,115.20
2022-12-03T21:34:32.583Z,116.50
2022-12-03T21:39:37.572Z,119.80
2022-12-03T21:44:39.397Z,111.60
2022-12-03T21:49:41.427Z,114.80
2022-12-03T21:54:43.234Z,115.60
2022-12-03T21:59:45.126Z,106.00
2022-12-03T22:04:50.870Z,107.50
2022-12-03T22:15:03.011Z,121.10
2022-12-03T22:20:06.965Z,122.70
2022-12-03T22:25:09.470Z,118.20
2022-12-03T22:30:11.502Z,127.40
2022-12-03T22:35:13.291Z,123.00
2022-12-03T22:40:15.363Z,126.60
2022-12-03T22:45:17.093Z,110.00
2022-12-03T23:00:30.234Z,118.20
2022-12-03T23:05:38.620Z,129.30
2022-12-03T23:10:43.943Z,143.20
2022-12-03T23:15:51.547Z,136.40
2022-12-03T23:20:55.536Z,128.10
2022-12-03T23:26:10.135Z,123.40
2022-12-03T23:31:23.035Z,129.20
2022-12-03T23:36:27.600Z,119.60
2022-12-03T23:41:29.537Z,122.90
2022-12-03T23:46:31.350Z,97.80
2022-12-03T23:51:33.159Z,104.40
2022-12-03T23:56:34.916Z,103.10
